sensor_id;sensor_type;location;lat;lon;timestamp;pressure;altitude;pressure_sealevel;temperature;humidity
51297;BME280;37380;45.186;9.792;2023-05-02T00:01:41;100898.28;;;12.20;100.00
51297;BME280;37380;45.186;9.792;2023-05-02T00:04:08;100866.50;;;11.82;100.00
51297;BME280;37380;45.186;9.792;2023-05-02T00:06:35;100905.78;;;12.08;100.00
51297;BME280;37380;45.186;9.792;2023-05-02T00:09:02;100803.44;;;11.47;100.00
51297;BME280;37380;45.186;9.792;2023-05-02T00:11:30;100858.47;;;11.76;100.00
51297;BME280;37380;45.186;9.792;2023-05-02T00:13:57;100829.28;;;11.64;100.00
51297;BME280;37380;45.186;9.792;2023-05-02T00:16:24;100831.94;;;11.65;100.00
51297;BME280;37380;45.186;9.792;2023-05-02T00:18:52;100881.50;;;11.86;100.00
51297;BME280;37380;45.186;9.792;2023-05-02T00:21:25;100895.31;;;12.08;100.00
51297;BME280;37380;45.186;9.792;2023-05-02T00:24:19;100876.56;;;11.95;100.00
51297;BME280;37380;45.186;9.792;2023-05-02T00:26:47;100874.06;;;11.98;100.00
51297;BME280;37380;45.186;9.792;2023-05-02T00:29:20;100865.44;;;12.03;100.00
51297;BME280;37380;45.186;9.792;2023-05-02T00:32:14;100891.06;;;12.13;100.00
51297;BME280;37380;45.186;9.792;2023-05-02T00:34:41;100788.31;;;11.66;100.00
51297;BME280;37380;45.186;9.792;2023-05-02T00:37:09;100837.09;;;11.89;100.00
51297;BME280;37380;45.186;9.792;2023-05-02T00:39:36;100809.56;;;11.75;100.00
51297;BME280;37380;45.186;9.792;2023-05-02T00:42:03;100869.19;;;12.11;100.00
51297;BME280;37380;45.186;9.792;2023-05-02T00:44:30;100735.56;;;11.25;100.00
51297;BME280;37380;45.186;9.792;2023-05-02T00:47:00;100863.06;;;12.10;100.00
51297;BME280;37380;45.186;9.792;2023-05-02T00:49:27;100867.31;;;12.07;100.00
51297;BME280;37380;45.186;9.792;2023-05-02T00:51:55;100726.56;;;11.17;100.00
51297;BME280;37380;45.186;9.792;2023-05-02T00:54:22;100751.53;;;11.32;100.00
51297;BME280;37380;45.186;9.792;2023-05-02T00:56:49;100836.47;;;11.96;100.00
51297;BME280;37380;45.186;9.792;2023-05-02T00:59:16;100845.25;;;11.98;100.00
51297;BME280;37380;45.186;9.792;2023-05-02T01:10:47;100828.78;;;12.03;100.00
51297;BME280;37380;45.186;9.792;2023-05-02T01:13:21;100803.69;;;11.82;100.00
51297;BME280;37380;45.186;9.792;2023-05-02T01:15:53;100729.94;;;11.40;100.00
51297;BME280;37380;45.186;9.792;2023-05-02T01:18:24;100795.94;;;11.85;100.00
51297;BME280;37380;45.186;9.792;2023-05-02T01:20:59;100742.41;;;11.48;100.00
51297;BME280;37380;45.186;9.792;2023-05-02T01:23:56;100837.88;;;12.14;100.00
51297;BME280;37380;45.186;9.792;2023-05-02T01:26:50;100791.44;;;11.81;100.00
51297;BME280;37380;45.186;9.792;2023-05-02T01:29:26;100800.53;;;11.92;100.00
51297;BME280;37380;45.186;9.792;2023-05-02T01:32:30;100842.34;;;12.18;100.00
51297;BME280;37380;45.186;9.792;2023-05-02T01:35:20;100844.88;;;12.15;100.00
51297;BME280;37380;45.186;9.792;2023-05-02T01:37:48;100796.47;;;12.02;100.00
51297;BME280;37380;45.186;9.792;2023-05-02T01:40:19;100844.44;;;12.30;100.00
51297;BME280;37380;45.186;9.792;2023-05-02T01:42:50;100720.09;;;11.60;100.00
51297;BME280;37380;45.186;9.792;2023-05-02T01:45:18;100710.22;;;11.51;100.00
51297;BME280;37380;45.186;9.792;2023-05-02T01:47:47;100852.03;;;12.51;100.00
51297;BME280;37380;45.186;9.792;2023-05-02T01:50:18;100822.94;;;12.41;100.00
51297;BME280;37380;45.186;9.792;2023-05-02T01:52:48;100856.56;;;12.56;100.00
51297;BME280;37380;45.186;9.792;2023-05-02T01:55:16;100809.88;;;12.13;100.00
51297;BME280;37380;45.186;9.792;2023-05-02T01:57:46;100855.78;;;12.29;100.00
51297;BME280;37380;45.186;9.792;2023-05-02T02:00:16;100776.22;;;11.96;100.00
51297;BME280;37380;45.186;9.792;2023-05-02T02:02:45;100821.19;;;12.12;100.00
51297;BME280;37380;45.186;9.792;2023-05-02T02:05:13;100843.47;;;12.26;100.00
51297;BME280;37380;45.186;9.792;2023-05-02T02:07:42;100785.50;;;11.87;100.00
51297;BME280;37380;45.186;9.792;2023-05-02T02:10:09;100848.19;;;12.38;100.00
51297;BME280;37380;45.186;9.792;2023-05-02T02:12:49;100723.69;;;11.63;100.00
51297;BME280;37380;45.186;9.792;2023-05-02T02:15:17;100844.22;;;12.22;100.00
51297;BME280;37380;45.186;9.792;2023-05-02T02:17:48;100858.31;;;12.26;100.00
51297;BME280;37380;45.186;9.792;2023-05-02T02:20:21;100784.72;;;11.89;100.00
51297;BME280;37380;45.186;9.792;2023-05-02T02:22:49;100769.47;;;11.76;100.00
51297;BME280;37380;45.186;9.792;2023-05-02T02:25:18;100863.53;;;12.26;100.00
51297;BME280;37380;45.186;9.792;2023-05-02T02:27:52;100836.19;;;12.16;100.00
51297;BME280;37380;45.186;9.792;2023-05-02T02:30:46;100766.47;;;11.64;100.00
51297;BME280;37380;45.186;9.792;2023-05-02T02:33:13;100832.53;;;12.11;100.00
51297;BME280;37380;45.186;9.792;2023-05-02T02:35:42;100864.50;;;12.29;100.00
51297;BME280;37380;45.186;9.792;2023-05-02T02:38:37;100767.63;;;11.73;100.00
51297;BME280;37380;45.186;9.792;2023-05-02T02:47:05;100853.09;;;12.27;100.00
51297;BME280;37380;45.186;9.792;2023-05-02T02:52:39;100868.50;;;12.16;100.00
51297;BME280;37380;45.186;9.792;2023-05-02T02:55:15;100857.00;;;12.13;100.00
51297;BME280;37380;45.186;9.792;2023-05-02T02:57:59;100803.06;;;11.89;100.00
51297;BME280;37380;45.186;9.792;2023-05-02T03:00:28;100855.22;;;12.10;100.00
51297;BME280;37380;45.186;9.792;2023-05-02T03:02:56;100837.28;;;11.95;100.00
51297;BME280;37380;45.186;9.792;2023-05-02T03:05:23;100841.78;;;11.99;100.00
51297;BME280;37380;45.186;9.792;2023-05-02T03:07:51;100810.88;;;11.88;100.00
51297;BME280;37380;45.186;9.792;2023-05-02T03:10:21;100826.81;;;11.95;100.00
51297;BME280;37380;45.186;9.792;2023-05-02T03:12:49;100819.53;;;11.85;100.00
51297;BME280;37380;45.186;9.792;2023-05-02T03:18:05;100750.25;;;11.47;100.00
51297;BME280;37380;45.186;9.792;2023-05-02T03:20:32;100763.41;;;11.50;100.00
51297;BME280;37380;45.186;9.792;2023-05-02T03:23:00;100814.75;;;11.73;100.00
51297;BME280;37380;45.186;9.792;2023-05-02T03:25:27;100776.00;;;11.62;100.00
51297;BME280;37380;45.186;9.792;2023-05-02T03:28:02;100813.03;;;11.74;100.00
51297;BME280;37380;45.186;9.792;2023-05-02T03:30:58;100846.03;;;11.96;100.00
51297;BME280;37380;45.186;9.792;2023-05-02T03:33:59;100812.16;;;11.75;100.00
51297;BME280;37380;45.186;9.792;2023-05-02T03:36:55;100833.59;;;11.89;100.00
51297;BME280;37380;45.186;9.792;2023-05-02T03:39:22;100753.25;;;11.32;100.00
51297;BME280;37380;45.186;9.792;2023-05-02T03:41:49;100749.78;;;11.33;100.00
51297;BME280;37380;45.186;9.792;2023-05-02T03:44:20;100829.22;;;11.89;100.00
51297;BME280;37380;45.186;9.792;2023-05-02T03:46:47;100741.16;;;11.36;100.00
51297;BME280;37380;45.186;9.792;2023-05-02T03:49:14;100828.31;;;11.87;100.00
51297;BME280;37380;45.186;9.792;2023-05-02T03:51:44;100775.41;;;11.43;100.00
51297;BME280;37380;45.186;9.792;2023-05-02T03:54:12;100847.34;;;11.83;100.00
51297;BME280;37380;45.186;9.792;2023-05-02T03:56:41;100803.72;;;11.55;100.00
51297;BME280;37380;45.186;9.792;2023-05-02T03:59:21;100828.53;;;11.68;100.00
51297;BME280;37380;45.186;9.792;2023-05-02T04:01:49;100811.75;;;11.61;100.00
51297;BME280;37380;45.186;9.792;2023-05-02T04:04:19;100785.56;;;11.34;100.00
51297;BME280;37380;45.186;9.792;2023-05-02T04:06:49;100743.38;;;11.23;100.00
51297;BME280;37380;45.186;9.792;2023-05-02T04:09:17;100834.25;;;11.83;100.00
51297;BME280;37380;45.186;9.792;2023-05-02T04:11:51;100861.50;;;11.88;100.00
51297;BME280;37380;45.186;9.792;2023-05-02T04:14:19;100831.25;;;11.71;100.00
51297;BME280;37380;45.186;9.792;2023-05-02T04:16:48;100863.28;;;11.89;100.00
51297;BME280;37380;45.186;9.792;2023-05-02T04:19:20;100777.72;;;11.34;100.00
51297;BME280;37380;45.186;9.792;2023-05-02T04:21:48;100794.13;;;11.55;100.00
51297;BME280;37380;45.186;9.792;2023-05-02T04:24:22;100832.00;;;11.67;100.00
51297;BME280;37380;45.186;9.792;2023-05-02T04:27:16;100809.72;;;11.52;100.00
51297;BME280;37380;45.186;9.792;2023-05-02T04:29:51;100815.06;;;11.55;100.00
51297;BME280;37380;45.186;9.792;2023-05-02T04:32:54;100853.84;;;11.69;100.00
51297;BME280;37380;45.186;9.792;2023-05-02T04:35:48;100840.25;;;11.52;100.00
51297;BME280;37380;45.186;9.792;2023-05-02T04:38:17;100795.09;;;11.32;100.00
51297;BME280;37380;45.186;9.792;2023-05-02T04:40:45;100859.00;;;11.66;100.00
51297;BME280;37380;45.186;9.792;2023-05-02T04:43:12;100867.50;;;11.59;100.00
51297;BME280;37380;45.186;9.792;2023-05-02T04:45:49;100722.13;;;10.87;100.00
51297;BME280;37380;45.186;9.792;2023-05-02T04:48:26;100885.44;;;11.73;100.00
51297;BME280;37380;45.186;9.792;2023-05-02T04:50:53;100808.59;;;11.19;100.00
51297;BME280;37380;45.186;9.792;2023-05-02T04:53:27;100889.50;;;11.65;100.00
51297;BME280;37380;45.186;9.792;2023-05-02T04:56:21;100899.19;;;11.68;100.00
51297;BME280;37380;45.186;9.792;2023-05-02T04:58:48;100807.88;;;11.23;100.00
51297;BME280;37380;45.186;9.792;2023-05-02T05:01:15;100906.41;;;11.75;100.00
51297;BME280;37380;45.186;9.792;2023-05-02T05:03:44;100892.50;;;11.76;100.00
51297;BME280;37380;45.186;9.792;2023-05-02T05:06:13;100928.00;;;11.93;100.00
51297;BME280;37380;45.186;9.792;2023-05-02T05:08:41;100850.38;;;11.43;100.00
51297;BME280;37380;45.186;9.792;2023-05-02T05:11:13;100868.97;;;11.50;100.00
51297;BME280;37380;45.186;9.792;2023-05-02T05:13:48;100902.66;;;11.67;100.00
51297;BME280;37380;45.186;9.792;2023-05-02T05:16:36;100895.72;;;11.69;100.00
51297;BME280;37380;45.186;9.792;2023-05-02T05:19:03;100916.28;;;11.84;100.00
51297;BME280;37380;45.186;9.792;2023-05-02T05:21:31;100871.97;;;11.63;100.00
51297;BME280;37380;45.186;9.792;2023-05-02T05:23:59;100941.31;;;12.01;100.00
51297;BME280;37380;45.186;9.792;2023-05-02T05:26:27;100821.88;;;11.25;100.00
51297;BME280;37380;45.186;9.792;2023-05-02T05:29:01;100927.22;;;11.96;100.00
51297;BME280;37380;45.186;9.792;2023-05-02T05:31:55;100909.59;;;11.66;100.00
51297;BME280;37380;45.186;9.792;2023-05-02T05:34:23;100800.28;;;11.30;100.00
51297;BME280;37380;45.186;9.792;2023-05-02T05:36:53;100942.75;;;12.18;100.00
51297;BME280;37380;45.186;9.792;2023-05-02T05:39:21;100907.88;;;11.92;100.00
51297;BME280;37380;45.186;9.792;2023-05-02T05:41:50;100904.44;;;11.93;100.00
51297;BME280;37380;45.186;9.792;2023-05-02T05:44:18;100902.31;;;11.83;100.00
51297;BME280;37380;45.186;9.792;2023-05-02T05:46:48;100809.31;;;11.40;100.00
51297;BME280;37380;45.186;9.792;2023-05-02T05:49:16;100916.53;;;12.17;100.00
51297;BME280;37380;45.186;9.792;2023-05-02T05:51:51;100893.19;;;11.96;100.00
51297;BME280;37380;45.186;9.792;2023-05-02T05:54:53;100951.59;;;12.49;100.00
51297;BME280;37380;45.186;9.792;2023-05-02T05:57:47;100940.16;;;12.76;100.00
51297;BME280;37380;45.186;9.792;2023-05-02T06:00:16;100971.75;;;13.09;100.00
51297;BME280;37380;45.186;9.792;2023-05-02T06:02:48;100946.69;;;12.60;100.00
51297;BME280;37380;45.186;9.792;2023-05-02T06:05:36;100967.63;;;12.88;100.00
51297;BME280;37380;45.186;9.792;2023-05-02T06:08:30;100929.72;;;12.77;100.00
51297;BME280;37380;45.186;9.792;2023-05-02T06:10:57;100900.88;;;12.77;100.00
51297;BME280;37380;45.186;9.792;2023-05-02T06:13:24;100982.41;;;13.45;100.00
51297;BME280;37380;45.186;9.792;2023-05-02T06:15:51;100966.88;;;13.54;100.00
51297;BME280;37380;45.186;9.792;2023-05-02T06:18:18;100967.25;;;13.68;100.00
51297;BME280;37380;45.186;9.792;2023-05-02T06:20:45;100970.56;;;13.96;100.00
51297;BME280;37380;45.186;9.792;2023-05-02T06:23:19;100963.41;;;13.89;100.00
51297;BME280;37380;45.186;9.792;2023-05-02T06:26:13;100973.91;;;13.89;100.00
51297;BME280;37380;45.186;9.792;2023-05-02T06:28:47;100974.34;;;13.72;100.00
51297;BME280;37380;45.186;9.792;2023-05-02T06:31:48;100961.72;;;13.57;100.00
51297;BME280;37380;45.186;9.792;2023-05-02T06:34:35;100957.94;;;13.81;100.00
51297;BME280;37380;45.186;9.792;2023-05-02T06:37:02;100984.34;;;13.86;100.00
51297;BME280;37380;45.186;9.792;2023-05-02T06:39:29;100982.88;;;13.97;100.00
51297;BME280;37380;45.186;9.792;2023-05-02T06:41:57;100978.75;;;14.07;100.00
51297;BME280;37380;45.186;9.792;2023-05-02T06:44:25;100973.25;;;14.34;100.00
51297;BME280;37380;45.186;9.792;2023-05-02T06:46:52;101006.25;;;14.56;100.00
51297;BME280;37380;45.186;9.792;2023-05-02T06:49:19;100967.69;;;14.56;100.00
51297;BME280;37380;45.186;9.792;2023-05-02T06:51:46;100951.19;;;14.63;100.00
51297;BME280;37380;45.186;9.792;2023-05-02T06:54:13;101000.38;;;15.07;100.00
51297;BME280;37380;45.186;9.792;2023-05-02T06:56:43;101005.94;;;15.22;100.00
51297;BME280;37380;45.186;9.792;2023-05-02T06:59:10;100937.13;;;15.04;100.00
51297;BME280;37380;45.186;9.792;2023-05-02T07:01:37;100916.47;;;15.24;100.00
51297;BME280;37380;45.186;9.792;2023-05-02T07:04:04;101026.25;;;14.87;100.00
51297;BME280;37380;45.186;9.792;2023-05-02T07:06:31;101017.66;;;15.38;100.00
51297;BME280;37380;45.186;9.792;2023-05-02T07:08:59;101001.09;;;15.44;100.00
51297;BME280;37380;45.186;9.792;2023-05-02T07:11:26;100990.44;;;14.95;100.00
51297;BME280;37380;45.186;9.792;2023-05-02T07:14:00;100985.53;;;15.10;100.00
51297;BME280;37380;45.186;9.792;2023-05-02T07:17:01;100968.78;;;15.07;100.00
51297;BME280;37380;45.186;9.792;2023-05-02T07:19:55;100978.47;;;15.09;100.00
51297;BME280;37380;45.186;9.792;2023-05-02T07:22:22;101000.56;;;15.16;100.00
51297;BME280;37380;45.186;9.792;2023-05-02T07:24:56;101029.59;;;15.65;100.00
51297;BME280;37380;45.186;9.792;2023-05-02T07:27:30;100994.94;;;15.43;100.00
51297;BME280;37380;45.186;9.792;2023-05-02T07:30:31;100991.03;;;15.23;100.00
51297;BME280;37380;45.186;9.792;2023-05-02T07:33:32;101002.03;;;15.91;100.00
51297;BME280;37380;45.186;9.792;2023-05-02T07:36:16;101037.94;;;15.44;100.00
51297;BME280;37380;45.186;9.792;2023-05-02T07:38:43;101029.31;;;15.96;100.00
51297;BME280;37380;45.186;9.792;2023-05-02T07:41:12;101004.19;;;15.23;100.00
51297;BME280;37380;45.186;9.792;2023-05-02T07:43:39;100964.56;;;15.60;100.00
51297;BME280;37380;45.186;9.792;2023-05-02T07:46:06;100994.56;;;16.19;100.00
51297;BME280;37380;45.186;9.792;2023-05-02T07:48:33;101001.09;;;15.89;100.00
51297;BME280;37380;45.186;9.792;2023-05-02T07:51:08;101015.50;;;16.10;100.00
51297;BME280;37380;45.186;9.792;2023-05-02T07:54:14;101026.63;;;15.93;100.00
51297;BME280;37380;45.186;9.792;2023-05-02T07:56:41;101027.78;;;15.18;100.00
51297;BME280;37380;45.186;9.792;2023-05-02T07:59:09;100947.78;;;14.67;100.00
51297;BME280;37380;45.186;9.792;2023-05-02T08:01:36;101032.31;;;15.25;100.00
51297;BME280;37380;45.186;9.792;2023-05-02T08:04:10;100969.78;;;15.13;100.00
51297;BME280;37380;45.186;9.792;2023-05-02T08:07:05;101007.56;;;15.59;100.00
51297;BME280;37380;45.186;9.792;2023-05-02T08:09:32;100987.59;;;15.27;100.00
51297;BME280;37380;45.186;9.792;2023-05-02T08:11:59;101049.63;;;15.14;100.00
51297;BME280;37380;45.186;9.792;2023-05-02T08:14:28;101055.66;;;15.51;100.00
51297;BME280;37380;45.186;9.792;2023-05-02T08:16:55;101005.75;;;15.13;100.00
51297;BME280;37380;45.186;9.792;2023-05-02T08:19:22;101067.72;;;15.82;100.00
51297;BME280;37380;45.186;9.792;2023-05-02T08:21:49;101006.88;;;16.20;100.00
51297;BME280;37380;45.186;9.792;2023-05-02T08:24:16;101071.22;;;15.81;100.00
51297;BME280;37380;45.186;9.792;2023-05-02T08:26:43;100977.50;;;15.48;100.00
51297;BME280;37380;45.186;9.792;2023-05-02T08:29:16;101059.22;;;16.47;100.00
51297;BME280;37380;45.186;9.792;2023-05-02T08:32:17;101025.81;;;15.94;100.00
51297;BME280;37380;45.186;9.792;2023-05-02T08:35:12;101027.66;;;15.56;100.00
51297;BME280;37380;45.186;9.792;2023-05-02T08:37:39;101012.97;;;15.22;100.00
51297;BME280;37380;45.186;9.792;2023-05-02T08:40:10;101071.09;;;15.75;100.00
51297;BME280;37380;45.186;9.792;2023-05-02T08:42:41;101071.31;;;15.87;100.00
51297;BME280;37380;45.186;9.792;2023-05-02T08:45:11;101039.94;;;15.54;100.00
51297;BME280;37380;45.186;9.792;2023-05-02T08:47:58;101017.47;;;15.29;100.00
51297;BME280;37380;45.186;9.792;2023-05-02T08:50:27;101039.88;;;16.46;100.00
51297;BME280;37380;45.186;9.792;2023-05-02T08:52:55;101027.25;;;16.28;100.00
51297;BME280;37380;45.186;9.792;2023-05-02T08:55:23;101026.31;;;16.23;100.00
51297;BME280;37380;45.186;9.792;2023-05-02T08:57:56;101071.34;;;16.90;100.00
51297;BME280;37380;45.186;9.792;2023-05-02T09:00:23;101022.94;;;16.34;100.00
51297;BME280;37380;45.186;9.792;2023-05-02T09:05:41;101064.41;;;17.67;100.00
51297;BME280;37380;45.186;9.792;2023-05-02T09:08:08;100983.19;;;16.23;100.00
51297;BME280;37380;45.186;9.792;2023-05-02T09:10:36;101091.94;;;16.60;100.00
51297;BME280;37380;45.186;9.792;2023-05-02T09:16:19;101102.91;;;17.47;100.00
51297;BME280;37380;45.186;9.792;2023-05-02T09:18:47;101083.91;;;17.10;100.00
51297;BME280;37380;45.186;9.792;2023-05-02T09:21:19;101100.50;;;17.01;100.00
51297;BME280;37380;45.186;9.792;2023-05-02T09:28:53;101095.25;;;17.68;100.00
51297;BME280;37380;45.186;9.792;2023-05-02T09:31:48;101103.19;;;17.03;100.00
51297;BME280;37380;45.186;9.792;2023-05-02T09:34:28;101060.09;;;16.47;100.00
51297;BME280;37380;45.186;9.792;2023-05-02T09:37:34;101088.34;;;17.11;100.00
51297;BME280;37380;45.186;9.792;2023-05-02T09:40:28;101012.72;;;17.92;100.00
51297;BME280;37380;45.186;9.792;2023-05-02T09:42:58;101057.44;;;18.68;100.00
51297;BME280;37380;45.186;9.792;2023-05-02T09:45:25;101028.66;;;17.22;100.00
51297;BME280;37380;45.186;9.792;2023-05-02T09:47:52;101082.81;;;17.59;100.00
51297;BME280;37380;45.186;9.792;2023-05-02T09:50:46;101114.31;;;18.17;100.00
51297;BME280;37380;45.186;9.792;2023-05-02T09:53:13;100992.88;;;16.80;100.00
51297;BME280;37380;45.186;9.792;2023-05-02T09:55:40;101059.22;;;17.05;100.00
51297;BME280;37380;45.186;9.792;2023-05-02T09:58:19;101107.09;;;17.29;100.00
51297;BME280;37380;45.186;9.792;2023-05-02T10:00:48;101086.66;;;17.84;100.00
51297;BME280;37380;45.186;9.792;2023-05-02T10:03:17;101097.72;;;18.33;100.00
51297;BME280;37380;45.186;9.792;2023-05-02T10:05:51;101095.56;;;18.90;100.00
51297;BME280;37380;45.186;9.792;2023-05-02T10:08:46;101104.59;;;19.25;100.00
51297;BME280;37380;45.186;9.792;2023-05-02T10:11:13;101076.09;;;17.84;100.00
51297;BME280;37380;45.186;9.792;2023-05-02T10:13:43;101045.25;;;17.85;100.00
51297;BME280;37380;45.186;9.792;2023-05-02T10:16:11;101061.72;;;18.51;100.00
51297;BME280;37380;45.186;9.792;2023-05-02T10:18:47;101102.91;;;19.36;100.00
51297;BME280;37380;45.186;9.792;2023-05-02T10:21:24;101102.03;;;19.43;100.00
51297;BME280;37380;45.186;9.792;2023-05-02T10:24:00;101107.81;;;17.84;100.00
51297;BME280;37380;45.186;9.792;2023-05-02T10:27:01;101085.75;;;17.82;100.00
51297;BME280;37380;45.186;9.792;2023-05-02T10:29:39;101073.47;;;18.85;100.00
51297;BME280;37380;45.186;9.792;2023-05-02T10:32:33;101095.59;;;17.97;100.00
51297;BME280;37380;45.186;9.792;2023-05-02T10:35:04;101082.31;;;17.90;100.00
51297;BME280;37380;45.186;9.792;2023-05-02T10:37:33;101098.44;;;18.16;100.00
51297;BME280;37380;45.186;9.792;2023-05-02T10:40:02;101086.75;;;17.92;100.00
51297;BME280;37380;45.186;9.792;2023-05-02T10:42:29;101114.81;;;17.82;100.00
51297;BME280;37380;45.186;9.792;2023-05-02T10:44:58;101096.00;;;18.36;100.00
51297;BME280;37380;45.186;9.792;2023-05-02T10:47:26;101088.38;;;17.82;100.00
51297;BME280;37380;45.186;9.792;2023-05-02T10:49:57;101115.56;;;17.72;100.00
51297;BME280;37380;45.186;9.792;2023-05-02T11:02:52;101036.63;;;17.25;100.00
51297;BME280;37380;45.186;9.792;2023-05-02T11:05:21;101076.47;;;17.45;100.00
51297;BME280;37380;45.186;9.792;2023-05-02T11:07:48;100988.13;;;18.01;100.00
51297;BME280;37380;45.186;9.792;2023-05-02T11:15:14;101047.88;;;18.84;100.00
51297;BME280;37380;45.186;9.792;2023-05-02T11:18:04;101095.22;;;20.03;100.00
51297;BME280;37380;45.186;9.792;2023-05-02T11:20:36;101096.19;;;20.53;100.00
51297;BME280;37380;45.186;9.792;2023-05-02T11:25:50;101051.00;;;19.87;100.00
51297;BME280;37380;45.186;9.792;2023-05-02T11:28:44;101093.53;;;20.54;100.00
51297;BME280;37380;45.186;9.792;2023-05-02T11:31:53;101037.78;;;20.67;100.00
51297;BME280;37380;45.186;9.792;2023-05-02T11:34:48;101095.25;;;21.05;100.00
51297;BME280;37380;45.186;9.792;2023-05-02T11:37:19;101093.44;;;21.17;96.99
51297;BME280;37380;45.186;9.792;2023-05-02T11:39:46;101052.81;;;20.66;98.37
51297;BME280;37380;45.186;9.792;2023-05-02T11:42:30;101078.47;;;20.89;95.48
51297;BME280;37380;45.186;9.792;2023-05-02T11:44:59;101090.81;;;20.36;96.05
51297;BME280;37380;45.186;9.792;2023-05-02T11:47:27;101058.03;;;19.89;96.97
51297;BME280;37380;45.186;9.792;2023-05-02T11:49:56;101013.75;;;19.56;99.88
51297;BME280;37380;45.186;9.792;2023-05-02T11:52:23;101040.31;;;19.68;99.62
51297;BME280;37380;45.186;9.792;2023-05-02T11:54:54;101035.97;;;20.38;96.57
51297;BME280;37380;45.186;9.792;2023-05-02T11:57:22;101026.09;;;19.48;100.00
51297;BME280;37380;45.186;9.792;2023-05-02T11:59:56;101088.59;;;19.08;100.00
51297;BME280;37380;45.186;9.792;2023-05-02T12:02:36;101089.78;;;19.63;100.00
51297;BME280;37380;45.186;9.792;2023-05-02T12:05:04;101096.94;;;19.83;100.00
51297;BME280;37380;45.186;9.792;2023-05-02T12:07:46;101082.81;;;19.90;100.00
51297;BME280;37380;45.186;9.792;2023-05-02T12:10:40;101067.78;;;19.98;100.00
51297;BME280;37380;45.186;9.792;2023-05-02T12:13:07;101031.53;;;19.76;100.00
51297;BME280;37380;45.186;9.792;2023-05-02T12:15:37;101027.16;;;20.19;100.00
51297;BME280;37380;45.186;9.792;2023-05-02T12:18:04;101029.78;;;20.21;100.00
51297;BME280;37380;45.186;9.792;2023-05-02T12:20:32;101087.31;;;20.68;100.00
51297;BME280;37380;45.186;9.792;2023-05-02T12:23:00;101038.66;;;20.17;99.96
51297;BME280;37380;45.186;9.792;2023-05-02T12:25:38;101038.59;;;19.92;100.00
51297;BME280;37380;45.186;9.792;2023-05-02T12:28:50;101096.09;;;20.10;99.78
51297;BME280;37380;45.186;9.792;2023-05-02T12:31:51;101050.16;;;20.48;96.78
51297;BME280;37380;45.186;9.792;2023-05-02T12:34:39;101089.09;;;20.89;100.00
51297;BME280;37380;45.186;9.792;2023-05-02T12:37:21;101107.59;;;21.39;96.75
51297;BME280;37380;45.186;9.792;2023-05-02T12:40:22;101096.00;;;21.51;96.31
51297;BME280;37380;45.186;9.792;2023-05-02T12:43:23;101104.09;;;21.02;97.24
51297;BME280;37380;45.186;9.792;2023-05-02T12:46:09;101080.09;;;19.75;100.00
51297;BME280;37380;45.186;9.792;2023-05-02T12:49:09;101076.28;;;19.08;100.00
51297;BME280;37380;45.186;9.792;2023-05-02T12:52:10;101077.50;;;19.90;100.00
51297;BME280;37380;45.186;9.792;2023-05-02T12:55:20;101076.28;;;19.16;100.00
51297;BME280;37380;45.186;9.792;2023-05-02T12:58:15;101016.38;;;19.41;100.00
51297;BME280;37380;45.186;9.792;2023-05-02T13:00:42;101010.31;;;19.76;100.00
51297;BME280;37380;45.186;9.792;2023-05-02T13:03:13;101029.78;;;19.98;100.00
51297;BME280;37380;45.186;9.792;2023-05-02T13:05:40;101028.00;;;20.27;100.00
51297;BME280;37380;45.186;9.792;2023-05-02T13:08:07;101045.66;;;21.05;100.00
51297;BME280;37380;45.186;9.792;2023-05-02T13:10:34;101090.75;;;21.30;100.00
51297;BME280;37380;45.186;9.792;2023-05-02T13:13:01;101095.31;;;20.69;100.00
51297;BME280;37380;45.186;9.792;2023-05-02T13:15:35;101086.31;;;19.77;100.00
51297;BME280;37380;45.186;9.792;2023-05-02T13:18:36;101091.72;;;20.20;100.00
51297;BME280;37380;45.186;9.792;2023-05-02T13:21:31;101076.72;;;20.77;100.00
51297;BME280;37380;45.186;9.792;2023-05-02T13:24:05;101075.66;;;21.45;96.89
51297;BME280;37380;45.186;9.792;2023-05-02T13:26:59;101104.66;;;21.99;91.53
51297;BME280;37380;45.186;9.792;2023-05-02T13:29:32;101083.22;;;22.16;87.28
51297;BME280;37380;45.186;9.792;2023-05-02T13:32:33;101026.22;;;20.86;90.76
51297;BME280;37380;45.186;9.792;2023-05-02T13:35:21;101031.53;;;20.92;93.34
51297;BME280;37380;45.186;9.792;2023-05-02T13:37:54;101097.00;;;21.18;91.78
51297;BME280;37380;45.186;9.792;2023-05-02T13:41:04;101081.84;;;21.46;91.55
51297;BME280;37380;45.186;9.792;2023-05-02T13:43:31;101089.97;;;20.80;94.52
51297;BME280;37380;45.186;9.792;2023-05-02T13:46:04;101022.72;;;20.23;98.48
51297;BME280;37380;45.186;9.792;2023-05-02T13:49:05;101039.53;;;20.72;94.43
51297;BME280;37380;45.186;9.792;2023-05-02T13:52:06;100997.06;;;19.82;99.34
51297;BME280;37380;45.186;9.792;2023-05-02T13:55:00;100980.25;;;19.92;93.27
51297;BME280;37380;45.186;9.792;2023-05-02T13:57:55;101042.97;;;19.65;95.29
51297;BME280;37380;45.186;9.792;2023-05-02T14:00:21;101035.09;;;19.96;95.57
51297;BME280;37380;45.186;9.792;2023-05-02T14:02:48;101005.19;;;18.41;100.00
51297;BME280;37380;45.186;9.792;2023-05-02T14:05:16;101038.47;;;19.46;100.00
51297;BME280;37380;45.186;9.792;2023-05-02T14:07:43;101063.22;;;19.57;100.00
51297;BME280;37380;45.186;9.792;2023-05-02T14:10:11;100999.44;;;19.05;100.00
51297;BME280;37380;45.186;9.792;2023-05-02T14:12:44;101043.72;;;19.37;100.00